Time;durP1;ratioP1;P1;durP2;ratioP2;P2;SDS_P1;SDS_P2;PMS_P1;PMS_P2;Temp;Humidity;BMP_temperature;BMP_pressure;BME280_temperature;BME280_humidity;BME280_pressure;Samples;Min_cycle;Max_cycle;Signal;HPM_P1;HPM_P2
2023/09/18 00:00:30;;;;;;;8.60;6.60;;;20.60;97.60;;;;;;6239001;23;20013;-66
2023/09/18 00:03:20;;;;;;;7.88;6.32;;;20.60;97.70;;;;;;6240597;23;20015;-66
2023/09/18 00:06:08;;;;;;;7.88;5.85;;;20.50;97.70;;;;;;6238715;23;20091;-66
2023/09/18 00:08:54;;;;;;;7.60;5.93;;;20.50;97.70;;;;;;6237806;23;20433;-67
2023/09/18 00:11:40;;;;;;;10.07;6.35;;;20.50;97.80;;;;;;6240564;23;20408;-67
2023/09/18 00:14:27;;;;;;;7.43;5.78;;;20.50;97.90;;;;;;6241123;23;20019;-67
2023/09/18 00:17:13;;;;;;;7.75;6.03;;;20.40;97.90;;;;;;6240438;22;20044;-67
2023/09/18 00:19:59;;;;;;;8.30;5.72;;;20.40;97.90;;;;;;6221712;23;20020;-66
2023/09/18 00:22:45;;;;;;;9.10;6.05;;;20.40;98.00;;;;;;6241270;23;20004;-66
2023/09/18 00:25:31;;;;;;;7.80;6.28;;;20.40;98.00;;;;;;6243689;23;20008;-66
2023/09/18 00:28:17;;;;;;;9.60;6.10;;;20.40;98.00;;;;;;6240999;23;20004;-66
2023/09/18 00:31:03;;;;;;;7.90;6.32;;;20.40;98.10;;;;;;6241932;23;20016;-65
2023/09/18 00:33:49;;;;;;;8.05;6.63;;;20.40;98.20;;;;;;6241615;23;20019;-66
2023/09/18 00:36:35;;;;;;;7.13;5.60;;;20.30;98.20;;;;;;6239731;23;20046;-67
2023/09/18 00:39:21;;;;;;;7.32;6.18;;;20.30;98.30;;;;;;6242974;22;20028;-66
2023/09/18 00:42:07;;;;;;;7.68;5.82;;;20.30;98.30;;;;;;6242053;23;20091;-66
2023/09/18 00:44:53;;;;;;;7.43;6.07;;;20.30;98.40;;;;;;6243225;22;20090;-66
2023/09/18 00:47:39;;;;;;;8.85;6.93;;;20.30;98.40;;;;;;6241087;23;20456;-66
2023/09/18 00:50:26;;;;;;;7.95;6.22;;;20.20;98.40;;;;;;6242836;23;20070;-66
2023/09/18 00:53:19;;;;;;;10.50;6.53;;;20.20;98.40;;;;;;6242521;23;20020;-66
2023/09/18 00:56:05;;;;;;;10.48;6.15;;;20.20;98.50;;;;;;6240677;22;20094;-66
2023/09/18 00:58:52;;;;;;;7.43;5.97;;;20.20;98.50;;;;;;6240700;23;20035;-66
2023/09/18 01:01:40;;;;;;;7.80;6.53;;;20.20;98.60;;;;;;6243839;22;20016;-67
2023/09/18 01:04:28;;;;;;;8.35;6.35;;;20.20;98.60;;;;;;6241121;23;20462;-67
2023/09/18 01:07:14;;;;;;;7.82;6.13;;;20.20;98.60;;;;;;6239950;23;20008;-67
2023/09/18 01:10:00;;;;;;;7.90;5.88;;;20.10;98.60;;;;;;6218788;23;20424;-67
2023/09/18 01:13:04;;;;;;;8.48;6.13;;;20.10;98.70;;;;;;6240408;23;20043;-67
2023/09/18 01:16:06;;;;;;;7.97;5.90;;;20.10;98.70;;;;;;6218232;23;20465;-68
2023/09/18 01:18:52;;;;;;;7.97;6.25;;;20.10;98.70;;;;;;6240524;23;20019;-67
2023/09/18 01:21:38;;;;;;;8.63;6.47;;;20.00;98.80;;;;;;6244478;23;20016;-75
2023/09/18 01:24:24;;;;;;;6.85;5.47;;;20.00;98.80;;;;;;6244161;23;20433;-76
2023/09/18 01:27:18;;;;;;;9.07;5.35;;;20.00;98.90;;;;;;6241845;23;20460;-75
2023/09/18 01:30:04;;;;;;;8.45;5.78;;;20.00;99.00;;;;;;6241421;23;20311;-74
2023/09/18 01:32:51;;;;;;;11.90;6.63;;;20.00;99.00;;;;;;6241134;23;20032;-74
2023/09/18 01:35:38;;;;;;;8.45;6.20;;;20.00;99.10;;;;;;6240892;23;20015;-75
2023/09/18 01:38:25;;;;;;;7.55;5.70;;;20.00;99.10;;;;;;6240868;23;20392;-75
2023/09/18 01:41:11;;;;;;;9.52;6.63;;;19.90;99.10;;;;;;6241017;23;20008;-76
2023/09/18 01:43:57;;;;;;;8.80;6.43;;;19.90;99.10;;;;;;6240194;23;20034;-75
2023/09/18 01:46:44;;;;;;;9.32;7.15;;;19.90;99.20;;;;;;6242348;22;20082;-75
2023/09/18 01:49:35;;;;;;;7.78;6.03;;;19.80;99.20;;;;;;6240569;23;20109;-76
2023/09/18 01:52:21;;;;;;;7.40;5.47;;;19.80;99.50;;;;;;6240599;23;20030;-75
2023/09/18 01:55:08;;;;;;;9.45;5.93;;;19.80;99.50;;;;;;6241676;22;20346;-76
2023/09/18 01:57:54;;;;;;;7.50;5.57;;;19.80;99.40;;;;;;6240744;23;20016;-74
2023/09/18 02:00:40;;;;;;;7.88;5.93;;;19.80;99.40;;;;;;6242966;22;20016;-77
2023/09/18 02:03:26;;;;;;;7.45;5.70;;;19.80;99.50;;;;;;6242351;23;20438;-77
2023/09/18 02:06:12;;;;;;;7.90;6.13;;;19.70;99.50;;;;;;6241131;23;20039;-77
2023/09/18 02:08:57;;;;;;;9.23;6.15;;;19.70;99.50;;;;;;6220800;23;20047;-75
2023/09/18 02:11:46;;;;;;;10.02;6.05;;;19.70;99.60;;;;;;6242864;23;20015;-76
2023/09/18 02:14:33;;;;;;;8.50;6.15;;;19.70;99.60;;;;;;6239838;23;20083;-76
2023/09/18 02:17:20;;;;;;;6.75;5.55;;;19.60;99.60;;;;;;6241499;23;20016;-75
2023/09/18 02:20:11;;;;;;;7.22;6.13;;;19.60;99.70;;;;;;6240596;23;20016;-75
2023/09/18 02:22:57;;;;;;;9.23;7.10;;;19.60;99.70;;;;;;6239529;23;20008;-75
2023/09/18 02:25:43;;;;;;;9.20;6.22;;;19.50;99.70;;;;;;6242732;23;20040;-76
2023/09/18 02:28:29;;;;;;;8.38;6.25;;;19.50;99.80;;;;;;6242392;23;20082;-76
2023/09/18 02:31:16;;;;;;;7.32;5.78;;;19.50;99.80;;;;;;6242747;23;20020;-75
2023/09/18 02:34:02;;;;;;;8.45;5.88;;;19.50;99.80;;;;;;6240480;23;20426;-76
2023/09/18 02:36:48;;;;;;;7.13;5.38;;;19.50;99.90;;;;;;6240451;23;20043;-76
2023/09/18 02:39:34;;;;;;;13.23;7.10;;;19.50;99.90;;;;;;6242154;23;20030;-75
2023/09/18 02:42:20;;;;;;;7.68;6.40;;;19.50;99.90;;;;;;6219697;23;20016;-76
2023/09/18 02:45:08;;;;;;;7.15;5.70;;;19.50;99.90;;;;;;6242938;23;20008;-75
2023/09/18 02:47:54;;;;;;;7.85;5.85;;;19.40;99.90;;;;;;6241118;23;20018;-77
2023/09/18 02:50:40;;;;;;;8.15;5.40;;;19.40;99.90;;;;;;6242255;22;20016;-73
2023/09/18 02:53:26;;;;;;;6.80;5.50;;;19.40;99.90;;;;;;6242745;23;20016;-73
2023/09/18 02:56:12;;;;;;;7.72;5.95;;;19.40;99.90;;;;;;6240374;22;20395;-73
2023/09/18 02:58:57;;;;;;;7.90;6.15;;;19.40;99.90;;;;;;6242094;23;20110;-67
2023/09/18 03:01:43;;;;;;;8.13;6.20;;;19.40;99.90;;;;;;6241813;22;20008;-67
2023/09/18 03:04:31;;;;;;;8.30;5.68;;;19.30;99.90;;;;;;6241165;22;20015;-67
2023/09/18 03:07:17;;;;;;;9.40;5.80;;;19.40;99.90;;;;;;6239951;23;20035;-68
2023/09/18 03:10:04;;;;;;;8.63;6.13;;;19.30;99.90;;;;;;6241581;22;20016;-67
2023/09/18 03:12:50;;;;;;;8.00;5.75;;;19.30;99.90;;;;;;6239291;23;20126;-68
2023/09/18 03:15:37;;;;;;;7.50;5.85;;;19.30;99.90;;;;;;6239994;23;20012;-68
2023/09/18 03:18:23;;;;;;;7.88;5.93;;;19.30;99.90;;;;;;6239330;23;20020;-67
2023/09/18 03:21:09;;;;;;;7.32;5.80;;;19.30;99.90;;;;;;6239634;23;20019;-67
2023/09/18 03:23:54;;;;;;;8.43;6.25;;;19.20;99.90;;;;;;6241498;22;20012;-67
2023/09/18 03:26:40;;;;;;;6.35;5.53;;;19.20;99.90;;;;;;6241284;22;20047;-66
2023/09/18 03:29:26;;;;;;;7.18;5.60;;;19.20;99.90;;;;;;6241932;23;20426;-68
2023/09/18 03:32:13;;;;;;;7.82;5.80;;;19.20;99.90;;;;;;6219136;23;20008;-67
2023/09/18 03:34:59;;;;;;;8.40;5.80;;;19.20;99.90;;;;;;6240570;23;20479;-66
2023/09/18 03:37:50;;;;;;;11.35;6.45;;;19.10;99.90;;;;;;6242041;23;20349;-67
2023/09/18 03:40:35;;;;;;;8.70;5.45;;;19.10;99.90;;;;;;6240293;23;20048;-66
2023/09/18 03:43:21;;;;;;;10.23;6.07;;;19.10;99.90;;;;;;6242657;23;20087;-67
2023/09/18 03:46:07;;;;;;;11.20;6.30;;;19.10;99.90;;;;;;6240416;23;20012;-68
2023/09/18 03:48:54;;;;;;;8.13;5.72;;;19.10;99.90;;;;;;6242250;23;20326;-67
2023/09/18 03:51:40;;;;;;;8.23;6.00;;;19.10;99.90;;;;;;6240894;23;20062;-68
2023/09/18 03:54:26;;;;;;;7.97;6.28;;;19.10;99.90;;;;;;6241374;23;20015;-67
2023/09/18 03:57:13;;;;;;;9.02;6.22;;;19.10;99.90;;;;;;6244582;22;20012;-67
2023/09/18 03:59:58;;;;;;;8.20;6.25;;;19.00;99.90;;;;;;6219967;23;20031;-68
2023/09/18 04:02:44;;;;;;;8.38;6.05;;;19.00;99.90;;;;;;6244004;22;20004;-65
2023/09/18 04:05:30;;;;;;;7.13;5.65;;;19.00;99.90;;;;;;6241573;23;20465;-68
2023/09/18 04:08:17;;;;;;;7.75;5.55;;;19.00;99.90;;;;;;6243120;23;20020;-67
2023/09/18 04:11:04;;;;;;;8.43;6.32;;;19.00;99.90;;;;;;6244205;23;20018;-67
2023/09/18 04:13:50;;;;;;;7.30;5.85;;;19.00;99.90;;;;;;6242108;23;20008;-67
2023/09/18 04:16:36;;;;;;;8.50;5.40;;;19.00;99.90;;;;;;6243551;23;20008;-67
2023/09/18 04:19:22;;;;;;;6.32;5.38;;;19.00;99.90;;;;;;6242084;23;20016;-66
2023/09/18 04:22:08;;;;;;;6.50;5.47;;;19.00;99.90;;;;;;6243790;23;20095;-68
2023/09/18 04:24:54;;;;;;;7.75;5.82;;;18.90;99.90;;;;;;6241997;23;20077;-68
2023/09/18 04:27:40;;;;;;;7.72;6.05;;;18.90;99.90;;;;;;6243655;23;20105;-68
2023/09/18 04:30:26;;;;;;;6.65;5.85;;;18.90;99.90;;;;;;6244001;23;20050;-67
2023/09/18 04:33:16;;;;;;;8.30;6.30;;;18.90;99.90;;;;;;6242224;23;20465;-67
2023/09/18 04:36:02;;;;;;;6.82;5.00;;;18.90;99.90;;;;;;6241329;23;20066;-67
2023/09/18 04:38:48;;;;;;;8.32;5.47;;;18.90;99.90;;;;;;6241419;23;20012;-66
2023/09/18 04:41:34;;;;;;;7.75;5.72;;;18.90;99.90;;;;;;6242424;23;20012;-68
2023/09/18 04:44:20;;;;;;;7.43;5.70;;;18.90;99.90;;;;;;6243789;23;20038;-67
2023/09/18 04:47:06;;;;;;;9.82;6.15;;;18.80;99.90;;;;;;6241069;23;20023;-67
2023/09/18 04:49:52;;;;;;;7.97;5.35;;;18.80;99.90;;;;;;6243722;23;20015;-67
2023/09/18 04:52:38;;;;;;;8.50;6.40;;;18.80;99.90;;;;;;6242645;23;20099;-67
2023/09/18 04:55:24;;;;;;;9.15;5.85;;;18.80;99.90;;;;;;6242536;22;20373;-67
2023/09/18 04:58:10;;;;;;;8.80;5.80;;;18.80;99.90;;;;;;6240323;23;20012;-66
2023/09/18 05:00:58;;;;;;;6.93;5.07;;;18.80;99.90;;;;;;6240221;23;20020;-68
2023/09/18 05:03:44;;;;;;;11.10;5.85;;;18.80;99.90;;;;;;6240754;23;20507;-67
2023/09/18 05:06:29;;;;;;;8.50;6.15;;;18.80;99.90;;;;;;6241619;23;20095;-67
2023/09/18 05:09:15;;;;;;;8.38;5.93;;;18.80;99.90;;;;;;6218856;23;20434;-54
2023/09/18 05:12:04;;;;;;;7.22;5.93;;;18.80;99.90;;;;;;6242322;23;20023;-59
2023/09/18 05:14:51;;;;;;;7.43;5.95;;;18.80;99.90;;;;;;6241322;23;20445;-61
2023/09/18 05:17:46;;;;;;;8.15;5.53;;;18.80;99.90;;;;;;6239835;23;20294;-64
2023/09/18 05:20:34;;;;;;;7.75;5.95;;;18.80;99.90;;;;;;6241268;23;20512;-65
2023/09/18 05:23:20;;;;;;;7.78;6.13;;;18.80;99.90;;;;;;6241214;23;20428;-67
2023/09/18 05:26:06;;;;;;;7.05;5.43;;;18.80;99.90;;;;;;6239996;23;20008;-70
2023/09/18 05:28:53;;;;;;;8.75;5.90;;;18.80;99.90;;;;;;6242775;23;20008;-68
2023/09/18 05:31:39;;;;;;;9.27;5.85;;;18.90;99.90;;;;;;6240421;23;20008;-68
2023/09/18 05:34:25;;;;;;;10.88;5.82;;;18.90;99.90;;;;;;6239454;23;20012;-68
2023/09/18 05:37:11;;;;;;;7.05;6.03;;;18.90;99.90;;;;;;6240386;23;20018;-68
2023/09/18 05:39:57;;;;;;;9.18;6.28;;;18.90;99.90;;;;;;6240807;23;20042;-67
2023/09/18 05:42:44;;;;;;;8.18;6.15;;;19.00;99.90;;;;;;6243691;22;20099;-68
2023/09/18 05:45:31;;;;;;;9.60;6.55;;;19.00;99.90;;;;;;6240373;23;20429;-69
2023/09/18 05:48:17;;;;;;;9.23;5.53;;;19.00;99.90;;;;;;6240345;23;20059;-68
2023/09/18 05:51:03;;;;;;;9.35;5.72;;;19.10;99.90;;;;;;6220072;22;20138;-68
2023/09/18 05:53:49;;;;;;;9.10;5.38;;;19.20;99.90;;;;;;6218111;23;20012;-68
2023/09/18 05:56:35;;;;;;;9.00;6.15;;;19.20;99.90;;;;;;6220427;23;20008;-68
2023/09/18 05:59:21;;;;;;;15.77;6.10;;;19.20;99.90;;;;;;6241537;23;20024;-69
2023/09/18 06:02:07;;;;;;;7.80;5.72;;;19.20;99.90;;;;;;6239404;23;20090;-69
2023/09/18 06:04:58;;;;;;;11.45;6.18;;;19.30;99.90;;;;;;6240306;23;20012;-70
2023/09/18 06:07:47;;;;;;;10.77;6.97;;;19.40;99.90;;;;;;6239515;23;20524;-68
2023/09/18 06:10:34;;;;;;;7.97;5.93;;;19.40;99.90;;;;;;6239687;23;20015;-69
2023/09/18 06:13:20;;;;;;;10.23;5.03;;;19.50;99.90;;;;;;6239543;23;20012;-69
2023/09/18 06:16:07;;;;;;;7.50;5.60;;;19.50;99.90;;;;;;6239130;23;20043;-68
2023/09/18 06:18:55;;;;;;;8.13;5.43;;;19.60;99.90;;;;;;6217874;23;20499;-69
2023/09/18 06:21:41;;;;;;;9.70;5.72;;;19.60;99.90;;;;;;6238788;23;20027;-68
2023/09/18 06:24:27;;;;;;;7.03;5.55;;;19.70;99.90;;;;;;6240516;23;20012;-68
2023/09/18 06:27:13;;;;;;;11.30;5.28;;;19.70;99.90;;;;;;6240324;23;20066;-68
2023/09/18 06:30:00;;;;;;;9.23;5.93;;;19.80;99.90;;;;;;6241276;23;20039;-68
2023/09/18 06:32:46;;;;;;;11.02;5.90;;;19.90;99.90;;;;;;6239555;23;20346;-68
2023/09/18 06:35:31;;;;;;;6.13;4.47;;;19.90;99.90;;;;;;6242310;23;20012;-68
2023/09/18 06:38:17;;;;;;;6.78;5.13;;;20.00;99.90;;;;;;6242352;23;20430;-64
2023/09/18 06:41:03;;;;;;;6.97;5.18;;;20.00;99.90;;;;;;6240348;23;20027;-64
2023/09/18 06:43:49;;;;;;;9.05;5.40;;;20.10;99.90;;;;;;6241411;23;20016;-63
2023/09/18 06:46:35;;;;;;;7.97;5.05;;;20.10;99.90;;;;;;6219907;23;20004;-64
2023/09/18 06:49:21;;;;;;;7.90;4.47;;;20.20;99.90;;;;;;6241042;23;20358;-65
2023/09/18 06:52:09;;;;;;;8.68;5.28;;;20.30;99.90;;;;;;6240040;23;20048;-64
2023/09/18 06:54:55;;;;;;;7.60;5.32;;;20.30;99.90;;;;;;6240457;22;20389;-64
2023/09/18 06:57:41;;;;;;;6.95;5.30;;;20.40;99.90;;;;;;6242351;23;20286;-65
2023/09/18 07:00:26;;;;;;;9.32;4.82;;;20.40;99.90;;;;;;6240588;23;20095;-64
2023/09/18 07:03:12;;;;;;;7.18;5.35;;;20.50;99.90;;;;;;6242451;23;20042;-63
2023/09/18 07:05:58;;;;;;;6.78;4.43;;;20.60;99.90;;;;;;6241735;23;20083;-63
2023/09/18 07:08:44;;;;;;;7.53;4.75;;;20.60;99.90;;;;;;6241106;23;20008;-66
2023/09/18 07:11:30;;;;;;;7.13;5.10;;;20.70;99.90;;;;;;6240111;23;20015;-64
2023/09/18 07:14:16;;;;;;;5.93;4.47;;;20.80;99.90;;;;;;6241916;23;20589;-64
2023/09/18 07:17:02;;;;;;;6.70;4.93;;;20.80;99.90;;;;;;6242265;23;20012;-64
2023/09/18 07:19:48;;;;;;;5.90;4.50;;;20.90;99.90;;;;;;6240200;23;20166;-63
2023/09/18 07:22:34;;;;;;;5.85;4.68;;;21.00;99.90;;;;;;6241174;23;20011;-63
2023/09/18 07:25:20;;;;;;;6.75;4.50;;;21.00;99.90;;;;;;6241484;23;20031;-64
2023/09/18 07:28:06;;;;;;;6.82;4.63;;;21.10;99.90;;;;;;6220559;23;20008;-63
2023/09/18 07:30:52;;;;;;;5.80;4.80;;;21.20;99.90;;;;;;6240362;23;20015;-63
2023/09/18 07:33:38;;;;;;;6.70;4.78;;;21.20;99.90;;;;;;6240121;23;20437;-62
2023/09/18 07:36:24;;;;;;;5.63;4.28;;;21.30;99.90;;;;;;6240932;23;20012;-64
2023/09/18 07:39:11;;;;;;;8.90;4.65;;;21.40;99.90;;;;;;6239427;23;20392;-63
2023/09/18 07:41:57;;;;;;;10.55;4.50;;;21.40;99.90;;;;;;6239399;23;20322;-63
2023/09/18 07:44:43;;;;;;;6.53;4.30;;;21.50;99.90;;;;;;6240153;23;20445;-65
2023/09/18 07:47:30;;;;;;;6.72;3.88;;;21.60;99.80;;;;;;6219180;23;20438;-64
2023/09/18 07:50:17;;;;;;;7.07;3.92;;;21.70;99.70;;;;;;6240336;23;20008;-64
2023/09/18 07:53:03;;;;;;;6.65;4.50;;;21.80;99.60;;;;;;6239709;23;20030;-64
2023/09/18 07:55:57;;;;;;;5.78;3.47;;;21.90;99.50;;;;;;6241510;22;20480;-64
2023/09/18 07:58:43;;;;;;;7.45;3.92;;;21.90;99.30;;;;;;6238426;23;20023;-63
2023/09/18 08:01:31;;;;;;;5.28;4.20;;;22.00;99.30;;;;;;6239373;23;20351;-64
2023/09/18 08:04:17;;;;;;;6.30;4.35;;;22.10;99.20;;;;;;6238176;23;20012;-64
2023/09/18 08:07:05;;;;;;;7.13;4.32;;;22.20;99.10;;;;;;6241027;23;20066;-64
2023/09/18 08:09:51;;;;;;;5.38;3.85;;;22.30;98.80;;;;;;6239634;23;20016;-63
2023/09/18 08:12:37;;;;;;;6.47;4.28;;;22.30;98.70;;;;;;6219436;23;20422;-65
2023/09/18 08:15:23;;;;;;;5.93;4.40;;;22.40;98.70;;;;;;6239153;23;20087;-63
2023/09/18 08:18:10;;;;;;;4.63;3.65;;;22.40;98.50;;;;;;6218090;23;20043;-63
2023/09/18 08:20:58;;;;;;;6.03;3.53;;;22.50;98.40;;;;;;6238717;23;20020;-65
2023/09/18 08:23:44;;;;;;;5.72;3.88;;;22.60;98.30;;;;;;6238898;23;20019;-64
2023/09/18 08:26:30;;;;;;;6.65;4.65;;;22.70;98.10;;;;;;6216899;23;20012;-64
2023/09/18 08:29:17;;;;;;;4.43;3.20;;;22.80;98.00;;;;;;6240147;23;20070;-64
2023/09/18 08:32:03;;;;;;;7.97;4.10;;;22.90;97.80;;;;;;6237714;23;20012;-65
2023/09/18 08:34:49;;;;;;;11.10;4.20;;;23.00;97.80;;;;;;6238662;23;20008;-63
2023/09/18 08:37:35;;;;;;;5.28;3.67;;;23.00;97.60;;;;;;6238549;23;20083;-61
2023/09/18 08:40:22;;;;;;;6.47;3.90;;;23.10;97.60;;;;;;6240414;23;20043;-62
2023/09/18 08:43:11;;;;;;;6.18;3.90;;;23.20;97.50;;;;;;6241570;23;20015;-65
2023/09/18 08:46:01;;;;;;;6.90;4.60;;;23.30;97.30;;;;;;6241362;23;20507;-63
2023/09/18 08:48:50;;;;;;;8.55;3.95;;;23.40;97.30;;;;;;6241527;23;20032;-61
2023/09/18 08:51:36;;;;;;;5.88;4.13;;;23.50;97.20;;;;;;6242281;22;20450;-61
2023/09/18 08:54:25;;;;;;;5.50;3.95;;;23.50;97.10;;;;;;6242462;23;20012;-61
2023/09/18 08:57:11;;;;;;;10.75;4.72;;;23.60;96.80;;;;;;6241776;22;20008;-66
2023/09/18 08:59:58;;;;;;;5.43;3.83;;;23.80;96.80;;;;;;6241336;23;20024;-64
2023/09/18 09:02:45;;;;;;;4.93;3.20;;;23.90;96.60;;;;;;6241133;23;20083;-62
2023/09/18 09:05:31;;;;;;;7.70;3.90;;;24.00;96.40;;;;;;6240431;23;20012;-63
2023/09/18 09:08:17;;;;;;;7.72;3.80;;;24.10;96.20;;;;;;6239107;23;20091;-62
2023/09/18 09:11:03;;;;;;;5.82;3.65;;;24.20;96.00;;;;;;6242699;22;20030;-63
2023/09/18 09:14:15;;;;;;;5.32;3.88;;;24.30;95.90;;;;;;6238980;23;20012;-64
2023/09/18 09:17:02;;;;;;;8.10;3.70;;;24.50;95.80;;;;;;6240484;23;20047;-63
2023/09/18 09:19:48;;;;;;;7.68;3.50;;;24.60;95.80;;;;;;6219285;23;20070;-63
2023/09/18 09:22:34;;;;;;;6.45;3.90;;;24.70;95.50;;;;;;6242254;23;20476;-63
2023/09/18 09:25:20;;;;;;;8.77;3.88;;;24.80;95.40;;;;;;6217127;23;20008;-64
2023/09/18 09:28:07;;;;;;;4.60;3.05;;;25.00;95.10;;;;;;6242203;23;20500;-65
2023/09/18 09:31:02;;;;;;;10.07;3.72;;;25.10;95.10;;;;;;6239435;23;20066;-64
2023/09/18 09:33:56;;;;;;;7.40;3.60;;;25.30;94.70;;;;;;6238239;23;20008;-64
2023/09/18 09:36:55;;;;;;;5.68;3.40;;;25.40;94.40;;;;;;6240508;23;20016;-64
2023/09/18 09:39:50;;;;;;;3.58;2.78;;;25.50;94.30;;;;;;6238529;23;20027;-65
2023/09/18 09:42:43;;;;;;;4.75;3.47;;;25.60;94.00;;;;;;6239873;23;20106;-64
2023/09/18 09:45:33;;;;;;;5.50;3.53;;;25.70;93.80;;;;;;6241697;23;20012;-64
2023/09/18 09:48:20;;;;;;;3.72;2.67;;;25.80;93.70;;;;;;6239516;23;20020;-65
2023/09/18 09:51:07;;;;;;;5.82;3.78;;;25.90;93.70;;;;;;6237419;22;20089;-64
2023/09/18 09:53:52;;;;;;;4.50;2.95;;;26.00;93.50;;;;;;6237805;23;20020;-64
2023/09/18 09:56:50;;;;;;;6.53;2.92;;;26.10;93.30;;;;;;6240455;22;20105;-64
2023/09/18 09:59:36;;;;;;;5.70;3.63;;;26.10;93.20;;;;;;6239608;23;20024;-64
2023/09/18 10:02:23;;;;;;;4.72;3.13;;;26.20;93.50;;;;;;6239956;23;20012;-64
2023/09/18 10:05:10;;;;;;;5.53;3.30;;;26.30;93.30;;;;;;6237024;23;20015;-64
2023/09/18 10:07:59;;;;;;;3.92;2.78;;;26.30;92.80;;;;;;6238847;23;20406;-63
2023/09/18 10:10:53;;;;;;;3.83;3.05;;;26.40;92.80;;;;;;6239012;23;20438;-64
2023/09/18 10:13:41;;;;;;;4.00;2.92;;;26.50;92.50;;;;;;6238659;23;20018;-63
2023/09/18 10:16:30;;;;;;;3.90;2.58;;;26.60;92.30;;;;;;6236956;23;20008;-65
2023/09/18 10:19:35;;;;;;;5.43;3.63;;;26.70;92.10;;;;;;6238818;23;20012;-63
2023/09/18 10:22:37;;;;;;;3.97;2.72;;;26.80;91.90;;;;;;6237903;23;20016;-65
2023/09/18 10:25:31;;;;;;;7.13;3.63;;;26.80;91.90;;;;;;6236759;23;20008;-65
2023/09/18 10:28:17;;;;;;;5.57;3.17;;;26.90;91.60;;;;;;6237950;23;20012;-64
2023/09/18 10:31:03;;;;;;;8.05;3.47;;;26.90;91.50;;;;;;6239245;23;20087;-64
2023/09/18 10:33:51;;;;;;;4.60;2.75;;;26.90;91.60;;;;;;6236197;23;20012;-64
2023/09/18 10:36:38;;;;;;;4.03;3.20;;;27.00;91.40;;;;;;6238653;23;20106;-65
2023/09/18 10:39:26;;;;;;;8.77;3.00;;;27.00;91.30;;;;;;6239362;23;20040;-65
2023/09/18 10:42:16;;;;;;;8.95;3.42;;;27.00;91.00;;;;;;6237813;23;20009;-65
2023/09/18 10:45:07;;;;;;;7.90;3.20;;;27.00;91.00;;;;;;6238041;23;20019;-66
2023/09/18 10:47:53;;;;;;;5.28;3.70;;;27.00;90.80;;;;;;6239935;23;20389;-64
2023/09/18 10:50:42;;;;;;;6.15;3.20;;;27.00;90.70;;;;;;6192691;23;1066440;-65
2023/09/18 10:53:28;;;;;;;5.55;3.42;;;27.00;90.50;;;;;;6242326;23;20414;-65
2023/09/18 10:56:18;;;;;;;5.03;2.92;;;27.00;90.10;;;;;;6240194;22;20015;-65
2023/09/18 10:59:07;;;;;;;5.63;2.97;;;27.00;90.50;;;;;;6239749;23;20016;-64
2023/09/18 11:01:53;;;;;;;9.10;3.00;;;26.90;90.10;;;;;;6239689;23;20374;-64
2023/09/18 11:04:42;;;;;;;5.43;3.38;;;26.90;90.20;;;;;;6241802;23;20012;-64
2023/09/18 11:07:28;;;;;;;5.53;2.90;;;26.90;90.10;;;;;;6239294;23;20330;-65
2023/09/18 11:10:26;;;;;;;5.72;3.30;;;26.90;90.20;;;;;;6238977;23;20008;-65
2023/09/18 11:13:28;;;;;;;3.80;2.90;;;26.80;90.10;;;;;;6238243;23;20083;-65
2023/09/18 11:16:27;;;;;;;6.22;3.28;;;26.80;90.10;;;;;;6217746;23;20004;-64
2023/09/18 11:19:19;;;;;;;6.03;3.17;;;26.80;90.10;;;;;;6241773;23;20012;-65
2023/09/18 11:22:10;;;;;;;4.40;2.85;;;26.80;90.10;;;;;;6217754;23;20012;-64
2023/09/18 11:25:31;;;;;;;4.10;3.33;;;26.70;90.10;;;;;;6238923;23;20392;-65
2023/09/18 11:28:24;;;;;;;4.00;2.90;;;26.70;90.20;;;;;;6241412;23;20106;-64
2023/09/18 11:31:11;;;;;;;11.90;3.50;;;26.70;90.10;;;;;;6238808;23;20043;-65
2023/09/18 11:33:57;;;;;;;3.53;2.58;;;26.80;90.30;;;;;;6238989;23;20023;-64
2023/09/18 11:36:43;;;;;;;5.88;3.10;;;26.80;90.30;;;;;;6241375;23;20058;-65
2023/09/18 11:39:36;;;;;;;4.60;2.92;;;26.70;90.40;;;;;;6238729;23;20015;-64
2023/09/18 11:42:22;;;;;;;4.40;3.22;;;26.80;90.50;;;;;;6241096;23;20513;-63
2023/09/18 11:45:17;;;;;;;8.93;3.40;;;26.70;90.40;;;;;;6241667;23;20012;-64
2023/09/18 11:48:03;;;;;;;;;;;26.70;90.50;;;;;;6239551;23;20119;-65
2023/09/18 11:50:50;;;;;;;5.60;3.13;;;26.70;90.70;;;;;;6238575;22;19900;-65
2023/09/18 11:53:41;;;;;;;11.35;4.00;;;26.60;90.40;;;;;;6240642;23;20145;-64
2023/09/18 11:56:27;;;;;;;5.68;3.85;;;26.60;90.50;;;;;;6238831;22;20040;-64
2023/09/18 11:59:13;;;;;;;6.70;3.08;;;26.60;90.60;;;;;;6240749;23;20533;-63
2023/09/18 12:02:05;;;;;;;3.95;3.08;;;26.50;90.40;;;;;;6240271;23;20264;-65
2023/09/18 12:04:51;;;;;;;6.90;3.50;;;26.50;90.50;;;;;;6239818;23;20070;-64
2023/09/18 12:07:38;;;;;;;4.93;3.05;;;26.50;90.50;;;;;;6241709;23;20008;-64
2023/09/18 12:10:26;;;;;;;5.75;3.13;;;26.50;90.70;;;;;;6239997;23;20082;-65
2023/09/18 12:13:12;;;;;;;6.57;3.42;;;26.50;90.70;;;;;;6241338;23;20009;-64
2023/09/18 12:16:05;;;;;;;4.70;3.53;;;26.60;90.80;;;;;;6242391;23;20012;-65
2023/09/18 12:18:51;;;;;;;4.55;3.10;;;26.60;90.90;;;;;;6221847;23;20008;-65
2023/09/18 12:21:40;;;;;;;5.82;2.88;;;26.70;90.90;;;;;;6243875;23;20011;-64
2023/09/18 12:24:27;;;;;;;9.30;4.18;;;26.80;91.00;;;;;;6243005;23;20323;-64
2023/09/18 12:27:13;;;;;;;4.28;2.85;;;26.90;90.60;;;;;;6241098;23;20323;-65
2023/09/18 12:30:00;;;;;;;5.72;3.25;;;27.00;90.70;;;;;;6243305;23;20449;-65
2023/09/18 12:32:49;;;;;;;5.00;3.35;;;27.10;90.80;;;;;;6241937;23;20438;-64
2023/09/18 12:35:35;;;;;;;6.45;3.58;;;27.10;90.80;;;;;;6242015;23;20016;-65
2023/09/18 12:38:27;;;;;;;16.00;4.28;;;27.10;90.40;;;;;;6241649;23;20607;-64
2023/09/18 12:41:13;;;;;;;9.02;4.30;;;27.10;90.50;;;;;;6241555;23;20023;-64
2023/09/18 12:44:00;;;;;;;5.47;3.55;;;27.20;90.30;;;;;;6243527;23;20039;-65
2023/09/18 12:46:49;;;;;;;5.10;3.28;;;27.10;90.10;;;;;;6241738;23;20019;-65
2023/09/18 12:49:35;;;;;;;5.55;3.10;;;27.10;90.00;;;;;;6242276;23;20044;-65
2023/09/18 12:52:22;;;;;;;4.72;3.40;;;27.10;89.90;;;;;;6243164;22;20301;-66
2023/09/18 12:55:10;;;;;;;7.32;3.55;;;27.10;89.90;;;;;;6241665;22;20044;-64
2023/09/18 12:57:56;;;;;;;5.40;3.38;;;27.00;90.00;;;;;;6241110;23;20333;-64
2023/09/18 13:00:49;;;;;;;8.43;3.55;;;27.00;90.00;;;;;;6240752;23;20019;-65
2023/09/18 13:03:46;;;;;;;5.68;3.05;;;27.00;90.00;;;;;;6241569;23;20087;-64
2023/09/18 13:06:32;;;;;;;5.25;3.28;;;26.90;89.60;;;;;;6242506;23;20012;-64
2023/09/18 13:09:22;;;;;;;4.68;3.30;;;26.90;89.30;;;;;;6241820;23;20005;-65
2023/09/18 13:12:09;;;;;;;4.80;3.33;;;26.80;89.30;;;;;;6240717;23;20343;-63
2023/09/18 13:15:00;;;;;;;7.75;3.47;;;26.80;89.10;;;;;;6242360;23;20081;-64
2023/09/18 13:17:47;;;;;;;4.82;3.00;;;26.70;89.20;;;;;;6242495;23;20333;-63
2023/09/18 13:20:33;;;;;;;4.45;3.38;;;26.70;89.50;;;;;;6240548;23;20326;-64
2023/09/18 13:23:19;;;;;;;6.90;3.28;;;26.60;89.60;;;;;;6220936;23;20008;-64
2023/09/18 13:26:07;;;;;;;4.72;2.95;;;26.60;89.80;;;;;;6241730;23;20239;-63
2023/09/18 13:28:53;;;;;;;4.57;3.05;;;26.60;89.60;;;;;;6240821;23;20004;-63
2023/09/18 13:31:39;;;;;;;6.20;3.70;;;26.60;90.00;;;;;;6240874;23;20040;-64
2023/09/18 13:34:25;;;;;;;6.75;3.75;;;26.50;90.10;;;;;;6241203;23;20388;-65
2023/09/18 13:37:11;;;;;;;5.80;3.30;;;26.50;90.00;;;;;;6241095;23;20428;-64
2023/09/18 13:39:57;;;;;;;5.75;3.17;;;26.50;90.10;;;;;;6240823;23;20043;-62
2023/09/18 13:42:43;;;;;;;6.30;3.15;;;26.50;90.20;;;;;;6220813;23;20028;-64
2023/09/18 13:45:30;;;;;;;6.20;3.78;;;26.40;90.50;;;;;;6240967;23;20012;-63
2023/09/18 13:48:16;;;;;;;6.07;3.33;;;26.30;90.90;;;;;;6239577;23;20004;-64
2023/09/18 13:51:03;;;;;;;6.22;4.07;;;26.30;91.20;;;;;;6239259;22;20097;-64
2023/09/18 13:53:49;;;;;;;6.30;3.35;;;26.20;91.40;;;;;;6241019;23;20036;-62
2023/09/18 13:56:35;;;;;;;4.60;3.08;;;26.10;91.80;;;;;;6242106;22;20004;-63
2023/09/18 13:59:21;;;;;;;12.07;3.88;;;26.10;92.00;;;;;;6240052;23;20031;-64
2023/09/18 14:02:08;;;;;;;5.57;3.53;;;26.10;92.30;;;;;;6241744;23;20008;-63
2023/09/18 14:04:54;;;;;;;4.72;3.10;;;26.10;92.40;;;;;;6238743;23;20012;-64
2023/09/18 14:07:40;;;;;;;4.45;3.03;;;26.10;92.50;;;;;;6241469;23;20012;-64
2023/09/18 14:10:27;;;;;;;8.55;3.45;;;26.10;92.80;;;;;;6239710;23;20016;-64
2023/09/18 14:13:13;;;;;;;5.15;3.10;;;26.10;93.00;;;;;;6240678;23;20082;-63
2023/09/18 14:15:59;;;;;;;8.07;3.78;;;26.10;93.10;;;;;;6240207;23;20016;-62
2023/09/18 14:18:45;;;;;;;6.18;3.42;;;26.10;93.20;;;;;;6238270;23;20008;-64
2023/09/18 14:21:33;;;;;;;5.03;3.22;;;26.10;93.20;;;;;;6239248;23;20104;-63
2023/09/18 14:24:22;;;;;;;10.35;3.88;;;26.00;93.20;;;;;;6218147;23;20004;-63
2023/09/18 14:27:08;;;;;;;4.88;3.55;;;26.00;93.30;;;;;;6239801;23;20113;-62
2023/09/18 14:29:53;;;;;;;4.35;2.55;;;26.00;93.30;;;;;;6240460;23;20008;-63